Time;durP1;ratioP1;P1;durP2;ratioP2;P2;SDS_P1;SDS_P2;PMS_P1;PMS_P2;Temp;Humidity;BMP_temperature;BMP_pressure;BME280_temperature;BME280_humidity;BME280_pressure;Samples;Min_cycle;Max_cycle;Signal;HPM_P1;HPM_P2
2023/07/10 00:01:25;;;;;;;24.90;23.13;;;19.60;60.30;;;;;;5056411;28;20087;-74
2023/07/10 00:03:51;;;;;;;27.00;25.20;;;19.60;59.30;;;;;;5056013;28;20350;-75
2023/07/10 00:06:17;;;;;;;25.38;23.63;;;19.70;58.50;;;;;;5023178;28;20930;-74
2023/07/10 00:08:43;;;;;;;24.65;22.90;;;19.80;58.30;;;;;;5037661;28;20064;-74
2023/07/10 00:11:26;;;;;;;24.35;22.85;;;19.80;58.20;;;;;;5057836;28;20132;-74
2023/07/10 00:13:51;;;;;;;21.75;20.30;;;19.70;58.50;;;;;;5058038;28;20036;-74
2023/07/10 00:16:19;;;;;;;25.40;22.70;;;19.70;58.70;;;;;;5035228;28;20124;-74
2023/07/10 00:18:46;;;;;;;28.45;26.75;;;19.70;58.40;;;;;;5050132;28;20017;-75
2023/07/10 00:21:12;;;;;;;19.63;18.38;;;19.70;58.10;;;;;;5049677;28;20021;-75
2023/07/10 00:23:38;;;;;;;20.25;18.95;;;19.70;60.50;;;;;;5049832;28;20040;-73
2023/07/10 00:26:23;;;;;;;20.05;18.75;;;19.60;59.90;;;;;;5050155;28;20402;-72
2023/07/10 00:28:51;;;;;;;24.10;22.52;;;19.50;60.90;;;;;;5053227;28;20449;-72
2023/07/10 00:31:16;;;;;;;23.17;21.70;;;19.40;59.80;;;;;;5051503;28;20095;-75
2023/07/10 00:33:42;;;;;;;20.73;19.23;;;19.30;60.20;;;;;;5049288;28;20765;-75
2023/07/10 00:36:29;;;;;;;18.92;17.58;;;19.20;62.40;;;;;;5049612;28;20061;-75
2023/07/10 00:38:59;;;;;;;17.92;16.73;;;19.20;62.80;;;;;;5047480;28;20021;-74
2023/07/10 00:41:26;;;;;;;;;;;19.10;63.00;;;;;;5032008;28;20095;-75
2023/07/10 00:43:56;;;;;;;20.40;19.00;;;19.00;63.30;;;;;;5049044;28;19917;-75
2023/07/10 00:46:30;;;;;;;18.48;17.20;;;18.90;64.20;;;;;;5047294;28;20431;-75
2023/07/10 00:49:28;;;;;;;19.33;17.80;;;18.70;65.00;;;;;;5046247;28;20443;-75
2023/07/10 00:52:03;;;;;;;19.05;17.75;;;18.70;64.40;;;;;;5048748;28;20029;-75
2023/07/10 00:54:34;;;;;;;18.15;16.85;;;18.90;62.40;;;;;;5050173;28;20029;-75
2023/07/10 00:57:03;;;;;;;20.95;19.08;;;19.00;63.00;;;;;;5046272;28;20080;-74
2023/07/10 00:59:29;;;;;;;19.88;18.48;;;18.90;63.90;;;;;;5048827;28;20031;-75
2023/07/10 01:02:22;;;;;;;18.70;17.30;;;18.70;64.80;;;;;;5051434;28;20055;-74
2023/07/10 01:04:58;;;;;;;18.30;16.95;;;18.60;65.20;;;;;;5045626;28;20558;-74
2023/07/10 01:07:26;;;;;;;18.30;16.80;;;18.40;66.00;;;;;;5046958;28;20040;-75
2023/07/10 01:10:06;;;;;;;19.08;17.55;;;18.30;66.70;;;;;;5048624;28;20032;-75
2023/07/10 01:12:32;;;;;;;19.07;17.63;;;18.30;66.00;;;;;;5048597;28;20454;-74
2023/07/10 01:14:57;;;;;;;18.27;16.73;;;18.30;65.90;;;;;;5049281;28;20283;-75
2023/07/10 01:17:24;;;;;;;19.48;17.98;;;18.20;65.80;;;;;;5048373;28;20403;-75
2023/07/10 01:19:54;;;;;;;19.17;17.42;;;18.30;65.90;;;;;;5048547;28;20032;-75
2023/07/10 01:22:20;;;;;;;19.85;18.33;;;18.20;65.60;;;;;;5048552;28;20047;-75
2023/07/10 01:24:51;;;;;;;20.42;18.88;;;18.20;65.50;;;;;;5048290;28;20033;-75
2023/07/10 01:27:19;;;;;;;21.08;19.23;;;18.30;64.00;;;;;;5049915;28;20457;-75
2023/07/10 01:30:13;;;;;;;21.27;19.73;;;18.50;62.90;;;;;;5038432;28;20496;-74
2023/07/10 01:32:39;;;;;;;19.00;17.60;;;18.70;61.80;;;;;;4995688;28;20047;-74
2023/07/10 01:35:08;;;;;;;20.13;18.55;;;19.00;60.50;;;;;;5028272;28;20033;-74
2023/07/10 01:37:34;;;;;;;18.95;17.45;;;19.00;60.10;;;;;;5014536;28;20033;-75
2023/07/10 01:40:00;;;;;;;19.98;18.48;;;19.00;60.00;;;;;;5028304;28;20368;-75
2023/07/10 01:42:26;;;;;;;19.77;18.00;;;19.10;59.60;;;;;;5029049;28;20096;-74
2023/07/10 01:44:51;;;;;;;21.65;20.17;;;19.10;59.60;;;;;;5029125;28;20056;-75
2023/07/10 01:47:17;;;;;;;20.48;18.92;;;19.10;59.20;;;;;;5028392;28;20388;-75
2023/07/10 01:49:53;;;;;;;20.65;19.23;;;19.10;59.20;;;;;;5010522;28;20029;-75
2023/07/10 01:52:21;;;;;;;19.67;18.55;;;19.10;60.20;;;;;;5027659;28;20395;-75
2023/07/10 01:54:46;;;;;;;20.17;18.67;;;18.90;61.40;;;;;;5026449;28;20064;-74
2023/07/10 01:57:14;;;;;;;18.40;17.13;;;18.70;63.00;;;;;;5028837;28;20053;-74
2023/07/10 01:59:40;;;;;;;19.13;17.73;;;18.60;64.00;;;;;;5026743;28;20029;-75
2023/07/10 02:02:07;;;;;;;18.40;17.02;;;18.50;64.40;;;;;;5030634;28;20570;-75
2023/07/10 02:04:33;;;;;;;19.63;17.73;;;18.40;65.20;;;;;;5031984;28;20041;-75
2023/07/10 02:06:59;;;;;;;18.83;17.52;;;18.30;66.60;;;;;;5018712;28;20038;-75
2023/07/10 02:09:27;;;;;;;19.98;18.58;;;18.30;67.20;;;;;;5025066;28;20763;-74
2023/07/10 02:11:54;;;;;;;17.92;16.75;;;18.30;67.80;;;;;;5025357;28;20029;-74
2023/07/10 02:14:20;;;;;;;18.55;17.02;;;18.40;67.30;;;;;;5031112;28;20033;-74
2023/07/10 02:16:46;;;;;;;19.02;17.50;;;18.40;67.50;;;;;;5030801;28;20673;-75
2023/07/10 02:19:12;;;;;;;19.98;18.20;;;18.60;67.00;;;;;;5031585;28;20036;-74
2023/07/10 02:21:38;;;;;;;20.50;18.35;;;18.60;66.90;;;;;;5031426;28;20033;-74
2023/07/10 02:24:04;;;;;;;17.30;15.82;;;18.50;66.90;;;;;;5032014;28;20096;-75
2023/07/10 02:26:30;;;;;;;19.02;17.35;;;18.60;67.90;;;;;;5028157;28;20104;-75
2023/07/10 02:28:57;;;;;;;19.95;18.50;;;18.60;67.90;;;;;;5026281;28;20037;-74
2023/07/10 02:31:23;;;;;;;19.95;18.33;;;18.60;66.80;;;;;;5032563;28;20152;-74
2023/07/10 02:33:49;;;;;;;19.13;17.55;;;18.60;67.80;;;;;;5049640;28;20056;-75
2023/07/10 02:36:15;;;;;;;20.17;18.65;;;18.60;68.70;;;;;;5036936;28;20060;-75
2023/07/10 02:38:41;;;;;;;18.27;16.77;;;18.40;68.80;;;;;;5051328;28;20025;-75
2023/07/10 02:41:07;;;;;;;18.15;16.45;;;18.30;68.90;;;;;;5052664;28;20867;-74
2023/07/10 02:43:32;;;;;;;18.27;16.25;;;18.40;69.60;;;;;;5049610;28;20032;-74
2023/07/10 02:45:58;;;;;;;17.05;15.75;;;18.30;69.40;;;;;;5067836;28;20037;-74
2023/07/10 02:48:23;;;;;;;18.30;16.55;;;18.20;69.30;;;;;;5050463;28;20120;-75
2023/07/10 02:50:49;;;;;;;16.42;15.32;;;18.10;69.80;;;;;;5050614;28;20458;-74
2023/07/10 02:53:15;;;;;;;16.83;15.23;;;18.10;69.20;;;;;;5051156;28;20086;-74
2023/07/10 02:55:42;;;;;;;18.65;16.90;;;18.10;69.20;;;;;;5051232;28;20452;-74
2023/07/10 02:58:08;;;;;;;18.85;17.17;;;18.20;68.90;;;;;;5033548;28;20083;-74
2023/07/10 03:00:34;;;;;;;18.42;16.80;;;18.10;68.60;;;;;;5050769;28;20040;-74
2023/07/10 03:03:00;;;;;;;18.95;17.45;;;18.20;67.40;;;;;;5033407;28;20070;-75
2023/07/10 03:05:26;;;;;;;19.38;17.80;;;18.30;66.70;;;;;;5051685;28;20069;-75
2023/07/10 03:07:52;;;;;;;17.95;16.48;;;18.40;66.00;;;;;;5050321;28;20217;-74
2023/07/10 03:10:19;;;;;;;18.20;16.60;;;18.40;65.40;;;;;;5064720;28;20029;-75
2023/07/10 03:12:45;;;;;;;17.60;16.25;;;18.50;64.50;;;;;;5049997;28;20422;-74
2023/07/10 03:15:11;;;;;;;16.95;15.55;;;18.50;64.50;;;;;;5049332;28;20037;-74
2023/07/10 03:17:36;;;;;;;18.02;16.50;;;18.60;63.90;;;;;;5049628;28;20415;-74
2023/07/10 03:20:02;;;;;;;20.02;18.10;;;18.70;63.50;;;;;;5050977;28;20036;-75
2023/07/10 03:22:28;;;;;;;18.80;17.33;;;18.60;64.70;;;;;;5042334;28;20080;-75
2023/07/10 03:24:55;;;;;;;17.70;16.50;;;18.60;65.10;;;;;;5025416;28;20033;-74
2023/07/10 03:27:21;;;;;;;17.80;16.45;;;18.60;64.80;;;;;;5051068;28;20155;-74
2023/07/10 03:29:46;;;;;;;16.92;15.70;;;18.70;64.10;;;;;;5050340;28;20190;-74
2023/07/10 03:32:12;;;;;;;17.27;15.88;;;18.70;64.30;;;;;;5051054;28;20076;-74
2023/07/10 03:34:38;;;;;;;17.25;15.73;;;18.80;63.70;;;;;;5052366;28;20033;-74
2023/07/10 03:37:05;;;;;;;16.98;15.57;;;18.90;63.50;;;;;;5032153;28;20036;-75
2023/07/10 03:39:30;;;;;;;17.23;15.77;;;18.90;62.80;;;;;;5045822;28;20033;-74
2023/07/10 03:41:56;;;;;;;16.73;15.40;;;19.00;62.40;;;;;;5038577;28;20043;-75
2023/07/10 03:44:22;;;;;;;17.52;16.27;;;19.10;62.50;;;;;;5036283;28;20874;-74
2023/07/10 03:46:48;;;;;;;18.23;16.75;;;19.10;63.10;;;;;;5035671;28;20025;-74
2023/07/10 03:49:14;;;;;;;16.02;14.82;;;19.10;62.40;;;;;;5030558;28;20033;-75
2023/07/10 03:51:39;;;;;;;17.40;16.10;;;19.20;63.10;;;;;;5046368;28;20475;-75
2023/07/10 03:54:07;;;;;;;18.50;17.15;;;19.20;62.70;;;;;;5045531;28;20109;-74
2023/07/10 03:56:34;;;;;;;16.60;15.55;;;19.20;62.30;;;;;;5017264;28;20079;-75
2023/07/10 03:59:00;;;;;;;18.45;17.05;;;19.10;63.20;;;;;;5032897;28;20056;-75
2023/07/10 04:01:26;;;;;;;17.27;16.08;;;19.10;64.10;;;;;;5040179;28;20068;-74
2023/07/10 04:03:51;;;;;;;17.23;15.82;;;19.10;63.80;;;;;;5045839;28;20040;-75
2023/07/10 04:06:18;;;;;;;16.75;15.50;;;19.10;63.60;;;;;;5049601;28;20580;-75
2023/07/10 04:08:45;;;;;;;17.08;15.65;;;19.10;63.40;;;;;;5032654;28;20410;-74
2023/07/10 04:11:19;;;;;;;16.13;14.82;;;19.10;63.70;;;;;;5048314;28;20033;-69
2023/07/10 04:13:45;;;;;;;16.75;15.48;;;19.10;63.80;;;;;;5043437;28;20076;-71
2023/07/10 04:16:16;;;;;;;17.38;15.70;;;19.10;64.10;;;;;;5047947;28;20289;-69
2023/07/10 04:18:45;;;;;;;16.92;15.73;;;19.10;63.90;;;;;;5049910;28;20075;-69
2023/07/10 04:21:15;;;;;;;16.60;15.30;;;19.20;63.10;;;;;;5041324;28;20100;-73
2023/07/10 04:23:40;;;;;;;20.03;16.57;;;19.30;62.80;;;;;;5042349;28;20383;-73
2023/07/10 04:26:13;;;;;;;17.83;16.40;;;19.40;62.40;;;;;;5049080;28;20288;-71
2023/07/10 04:28:39;;;;;;;17.63;16.33;;;19.50;62.30;;;;;;5049494;28;20025;-71
2023/07/10 04:31:04;;;;;;;16.83;15.55;;;19.50;62.00;;;;;;5031707;28;20519;-71
2023/07/10 04:33:30;;;;;;;18.45;17.00;;;19.50;62.30;;;;;;5021254;28;20562;-71
2023/07/10 04:35:57;;;;;;;17.48;16.27;;;19.50;62.10;;;;;;5028983;28;20049;-74
2023/07/10 04:38:26;;;;;;;17.80;16.58;;;19.50;62.30;;;;;;5028612;28;20043;-73
2023/07/10 04:41:03;;;;;;;16.92;15.80;;;19.50;62.40;;;;;;5032270;28;20030;-72
2023/07/10 04:43:31;;;;;;;19.05;17.88;;;19.60;62.20;;;;;;5021325;28;20037;-73
2023/07/10 04:45:59;;;;;;;18.73;17.63;;;19.60;61.10;;;;;;5029840;28;20421;-70
2023/07/10 04:48:25;;;;;;;19.17;17.95;;;19.70;61.20;;;;;;5027687;28;20120;-72
2023/07/10 04:50:52;;;;;;;20.48;19.08;;;19.70;60.70;;;;;;5030178;28;20037;-70
2023/07/10 04:53:19;;;;;;;15.55;14.20;;;19.80;60.40;;;;;;5028338;28;20036;-71
2023/07/10 04:55:47;;;;;;;16.35;15.20;;;19.90;60.20;;;;;;5010173;28;20056;-71
2023/07/10 04:58:12;;;;;;;19.13;17.65;;;19.90;59.50;;;;;;5014355;28;20033;-71
2023/07/10 05:00:38;;;;;;;18.25;16.77;;;19.90;61.30;;;;;;5012627;28;20495;-70
2023/07/10 05:03:05;;;;;;;17.60;16.13;;;19.80;62.10;;;;;;5011747;28;20046;-72
2023/07/10 05:05:31;;;;;;;19.55;18.10;;;19.70;61.90;;;;;;4996381;28;20109;-73
2023/07/10 05:07:57;;;;;;;19.20;17.55;;;19.80;61.10;;;;;;5016471;28;20021;-74
2023/07/10 05:10:23;;;;;;;16.00;14.70;;;19.70;62.30;;;;;;5022053;28;20025;-73
2023/07/10 05:12:49;;;;;;;20.33;18.85;;;19.80;59.50;;;;;;5029076;28;20108;-73
2023/07/10 05:15:15;;;;;;;19.52;17.73;;;19.70;61.20;;;;;;5028875;28;20064;-73
2023/07/10 05:17:41;;;;;;;18.58;17.38;;;19.80;60.60;;;;;;5028794;28;20049;-74
2023/07/10 05:20:08;;;;;;;19.15;17.98;;;19.80;60.70;;;;;;5029069;28;21275;-74
2023/07/10 05:22:33;;;;;;;17.63;16.23;;;19.70;61.90;;;;;;5028593;28;20069;-74
2023/07/10 05:24:59;;;;;;;16.73;15.35;;;19.80;59.90;;;;;;5009049;28;20041;-69
2023/07/10 05:27:25;;;;;;;17.30;16.10;;;19.80;59.80;;;;;;5029063;28;20033;-69
2023/07/10 05:29:51;;;;;;;19.95;18.33;;;19.80;60.10;;;;;;5034059;28;20088;-69
2023/07/10 05:32:16;;;;;;;21.48;19.77;;;19.70;61.70;;;;;;5048405;28;20065;-69
2023/07/10 05:34:42;;;;;;;19.83;18.45;;;19.70;61.20;;;;;;5044874;28;20075;-69
2023/07/10 05:37:08;;;;;;;19.73;18.30;;;19.70;61.60;;;;;;5048226;28;20029;-69
2023/07/10 05:39:34;;;;;;;20.90;19.55;;;19.70;61.10;;;;;;5047350;28;20494;-76
2023/07/10 05:42:00;;;;;;;19.27;17.77;;;19.70;60.90;;;;;;5030604;28;20055;-75
2023/07/10 05:44:26;;;;;;;17.60;16.05;;;19.70;61.20;;;;;;5048178;28;20033;-75
2023/07/10 05:46:51;;;;;;;16.38;15.00;;;19.80;60.70;;;;;;5047920;28;20548;-75
2023/07/10 05:49:18;;;;;;;17.23;15.82;;;19.90;59.70;;;;;;5045822;28;20124;-76
2023/07/10 05:51:43;;;;;;;15.88;14.45;;;19.90;59.10;;;;;;5047431;28;20065;-76
2023/07/10 05:54:09;;;;;;;16.92;15.65;;;19.90;58.80;;;;;;5031177;28;20053;-73
2023/07/10 05:56:35;;;;;;;17.98;16.63;;;19.80;63.30;;;;;;5062674;28;20024;-72
2023/07/10 05:59:01;;;;;;;16.67;14.95;;;19.50;69.90;;;;;;5048315;28;20060;-73
2023/07/10 06:01:27;;;;;;;17.38;14.40;;;19.10;75.80;;;;;;5029105;28;20041;-73
2023/07/10 06:03:53;;;;;;;15.40;14.20;;;18.80;83.30;;;;;;5033470;28;20029;-74
2023/07/10 06:06:18;;;;;;;17.67;16.40;;;18.50;91.50;;;;;;5049389;28;20072;-74
2023/07/10 06:08:44;;;;;;;16.75;15.32;;;18.20;92.00;;;;;;5030326;28;20029;-74
2023/07/10 06:11:10;;;;;;;17.10;15.48;;;18.20;94.00;;;;;;5063487;28;20432;-77
2023/07/10 06:13:36;;;;;;;20.17;17.10;;;18.30;95.80;;;;;;5013550;28;20407;-73
2023/07/10 06:16:06;;;;;;;17.48;15.70;;;18.30;95.00;;;;;;5046864;28;20029;-70
2023/07/10 06:18:32;;;;;;;17.85;16.05;;;18.20;95.50;;;;;;5040777;28;20068;-71
2023/07/10 06:20:59;;;;;;;17.05;15.02;;;18.30;96.70;;;;;;5063544;28;20080;-71
2023/07/10 06:23:27;;;;;;;16.45;14.88;;;18.50;97.40;;;;;;5045809;28;20191;-72
2023/07/10 06:25:53;;;;;;;16.15;14.82;;;18.60;96.00;;;;;;5047321;28;20084;-73
2023/07/10 06:28:20;;;;;;;15.57;14.25;;;18.60;97.00;;;;;;5048365;28;20075;-74
2023/07/10 06:30:57;;;;;;;16.55;15.18;;;18.60;97.10;;;;;;5032071;28;20053;-72
2023/07/10 06:33:23;;;;;;;16.83;15.40;;;18.70;95.90;;;;;;5026672;28;20044;-73
2023/07/10 06:35:49;;;;;;;15.27;13.95;;;18.60;94.60;;;;;;5021423;28;20068;-73
2023/07/10 06:38:15;;;;;;;15.20;13.80;;;18.50;93.60;;;;;;5028531;28;20471;-73
2023/07/10 06:40:41;;;;;;;31.15;18.98;;;18.50;97.00;;;;;;4989602;28;20041;-74
2023/07/10 06:43:08;;;;;;;56.80;32.55;;;18.30;96.80;;;;;;5028053;28;20025;-75
2023/07/10 06:45:33;;;;;;;83.30;47.05;;;17.80;99.70;;;;;;5010895;28;20034;-80
2023/07/10 06:47:59;;;;;;;60.15;42.83;;;17.40;99.80;;;;;;5010227;28;20042;-81
2023/07/10 06:50:25;;;;;;;44.38;40.75;;;17.10;99.90;;;;;;5029775;28;20025;-76
2023/07/10 06:52:50;;;;;;;41.65;38.90;;;17.00;99.90;;;;;;5013608;28;20041;-79
2023/07/10 06:55:17;;;;;;;42.80;39.50;;;17.00;99.90;;;;;;5031461;28;20072;-79
2023/07/10 06:57:43;;;;;;;33.63;31.48;;;17.10;99.90;;;;;;5030196;28;20029;-79
2023/07/10 07:00:12;;;;;;;33.75;31.55;;;17.20;99.90;;;;;;5031853;28;20693;-77
2023/07/10 07:02:38;;;;;;;33.85;30.92;;;17.40;99.90;;;;;;5011298;28;20124;-78
2023/07/10 07:05:06;;;;;;;44.83;41.65;;;17.50;99.90;;;;;;5030381;28;20041;-78
2023/07/10 07:07:31;;;;;;;32.47;30.10;;;17.30;99.90;;;;;;5029767;28;20029;-77
2023/07/10 07:09:59;;;;;;;34.45;32.08;;;17.30;99.90;;;;;;5031044;28;20574;-80
2023/07/10 07:12:25;;;;;;;33.00;30.17;;;17.30;99.90;;;;;;4996693;28;20066;-79
2023/07/10 07:14:52;;;;;;;29.75;27.48;;;17.20;99.90;;;;;;5030358;28;20018;-79
2023/07/10 07:17:17;;;;;;;34.60;31.83;;;17.10;99.90;;;;;;5032108;28;20037;-80
2023/07/10 07:19:45;;;;;;;32.58;30.55;;;17.00;99.90;;;;;;5031114;28;20726;-80
2023/07/10 07:22:11;;;;;;;46.58;42.15;;;17.00;99.90;;;;;;5030607;28;20033;-78
2023/07/10 07:24:37;;;;;;;69.43;65.22;;;17.00;99.90;;;;;;5032051;28;20044;-79
2023/07/10 07:27:03;;;;;;;35.00;32.28;;;17.00;99.90;;;;;;5044666;28;20033;-79
2023/07/10 07:29:29;;;;;;;32.58;30.30;;;17.10;99.90;;;;;;5035330;28;20054;-80
2023/07/10 07:31:54;;;;;;;31.35;29.20;;;17.20;99.90;;;;;;5049619;28;20041;-73
2023/07/10 07:34:20;;;;;;;32.28;29.65;;;17.20;99.90;;;;;;5048328;28;20164;-73
2023/07/10 07:36:49;;;;;;;29.00;27.00;;;17.20;99.90;;;;;;5050204;28;20063;-77
2023/07/10 07:39:15;;;;;;;33.17;30.60;;;17.30;99.90;;;;;;5050510;28;20025;-79
2023/07/10 07:41:41;;;;;;;28.80;26.08;;;17.40;99.90;;;;;;5049822;28;20368;-78
2023/07/10 07:44:07;;;;;;;32.67;30.40;;;17.40;99.90;;;;;;5051929;28;20040;-80
2023/07/10 07:46:33;;;;;;;32.72;29.98;;;17.40;99.90;;;;;;5050503;28;20041;-76
2023/07/10 07:48:59;;;;;;;35.05;32.60;;;17.50;99.90;;;;;;5050285;28;20364;-75
2023/07/10 07:51:25;;;;;;;31.88;29.42;;;17.60;99.90;;;;;;5049209;28;20053;-75
2023/07/10 07:54:08;;;;;;;33.28;30.98;;;17.60;99.90;;;;;;5034776;28;20112;-74
2023/07/10 07:56:34;;;;;;;32.03;29.67;;;17.60;99.90;;;;;;5024726;28;20029;-76
2023/07/10 07:58:59;;;;;;;34.45;31.77;;;17.60;99.90;;;;;;5032642;28;20071;-74
2023/07/10 08:01:25;;;;;;;36.47;33.95;;;17.60;99.90;;;;;;5046255;28;20144;-73
2023/07/10 08:03:51;;;;;;;32.67;30.33;;;17.70;99.90;;;;;;5032393;28;20029;-74
2023/07/10 08:06:17;;;;;;;33.53;30.80;;;17.70;99.90;;;;;;5046154;28;20620;-74
2023/07/10 08:08:43;;;;;;;31.45;29.45;;;17.80;99.90;;;;;;5030021;28;20442;-77
2023/07/10 08:11:09;;;;;;;35.20;32.33;;;17.80;99.90;;;;;;5065400;28;20494;-76
2023/07/10 08:13:35;;;;;;;35.00;32.03;;;17.80;99.90;;;;;;5050215;28;20029;-73
2023/07/10 08:16:00;;;;;;;32.92;30.10;;;17.90;99.90;;;;;;5047954;28;20033;-73
2023/07/10 08:18:26;;;;;;;32.13;29.73;;;17.90;99.90;;;;;;5049691;28;20037;-74
2023/07/10 08:21:03;;;;;;;33.25;31.20;;;18.10;99.90;;;;;;5032289;28;20120;-73
2023/07/10 08:23:29;;;;;;;35.20;32.28;;;18.30;99.90;;;;;;5041257;28;20039;-75
2023/07/10 08:25:55;;;;;;;36.85;34.05;;;18.50;99.90;;;;;;5066610;28;20102;-75
2023/07/10 08:28:21;;;;;;;34.17;31.63;;;18.70;99.90;;;;;;5052070;28;20036;-73
2023/07/10 08:30:47;;;;;;;36.50;34.20;;;18.80;99.90;;;;;;5049718;28;20044;-74
2023/07/10 08:33:12;;;;;;;36.20;33.70;;;19.10;99.90;;;;;;5049537;28;20029;-74
2023/07/10 08:35:38;;;;;;;40.65;37.95;;;19.70;99.90;;;;;;5049541;28;20031;-74
2023/07/10 08:38:05;;;;;;;37.58;35.08;;;20.30;99.90;;;;;;5049556;28;20056;-74
2023/07/10 08:40:33;;;;;;;31.95;29.95;;;20.50;99.90;;;;;;5033123;28;20017;-75
2023/07/10 08:43:03;;;;;;;36.00;33.88;;;20.70;99.90;;;;;;5046691;28;20372;-75
2023/07/10 08:45:37;;;;;;;32.22;30.00;;;20.70;99.90;;;;;;5048491;28;20048;-74
2023/07/10 08:48:14;;;;;;;39.42;33.00;;;21.10;99.90;;;;;;5047992;28;20037;-74
2023/07/10 08:50:41;;;;;;;27.90;25.98;;;21.30;99.90;;;;;;5049107;28;20704;-74
2023/07/10 08:53:12;;;;;;;27.17;25.17;;;21.50;99.90;;;;;;5031081;28;20033;-74
2023/07/10 08:55:56;;;;;;;34.88;32.80;;;21.90;99.90;;;;;;5049295;28;20055;-74
2023/07/10 08:58:25;;;;;;;31.60;29.20;;;22.30;99.90;;;;;;5047678;28;20491;-74
2023/07/10 09:00:56;;;;;;;31.08;28.98;;;22.40;99.90;;;;;;5047593;28;20084;-74
2023/07/10 09:03:44;;;;;;;34.58;32.55;;;22.80;99.90;;;;;;5048676;28;20152;-74
2023/07/10 09:06:18;;;;;;;35.60;33.33;;;23.50;99.30;;;;;;5022015;28;20507;-74
2023/07/10 09:08:48;;;;;;;37.83;35.55;;;23.60;93.40;;;;;;5047389;28;20031;-74
2023/07/10 09:11:15;;;;;;;52.80;49.85;;;24.00;90.70;;;;;;5048965;28;20111;-75
2023/07/10 09:13:52;;;;;;;57.67;54.72;;;24.20;90.00;;;;;;5063543;28;20068;-76
2023/07/10 09:16:20;;;;;;;45.47;42.78;;;24.90;90.30;;;;;;5047851;28;20020;-75
2023/07/10 09:19:01;;;;;;;84.30;80.47;;;24.80;81.40;;;;;;5031012;28;20083;-74
2023/07/10 09:21:32;;;;;;;52.83;50.17;;;24.90;83.90;;;;;;5047673;28;20078;-74
2023/07/10 09:23:58;;;;;;;44.55;42.00;;;25.00;83.10;;;;;;5063619;28;20051;-74
2023/07/10 09:26:37;;;;;;;55.25;52.38;;;25.50;74.20;;;;;;5046167;28;20064;-74
2023/07/10 09:29:14;;;;;;;49.88;46.80;;;25.90;75.40;;;;;;5029575;28;20123;-75
2023/07/10 09:32:00;;;;;;;58.22;54.85;;;25.90;74.40;;;;;;5047975;28;20103;-74
2023/07/10 09:34:34;;;;;;;62.78;58.97;;;25.90;78.00;;;;;;5046612;28;20090;-75
2023/07/10 09:37:03;;;;;;;72.57;68.68;;;26.30;74.50;;;;;;5047258;28;20103;-76
2023/07/10 09:39:32;;;;;;;78.93;75.35;;;26.30;73.50;;;;;;5048130;28;20099;-75
2023/07/10 09:41:59;;;;;;;72.97;69.63;;;25.90;77.30;;;;;;5039111;28;20088;-75
2023/07/10 09:44:34;;;;;;;31.55;29.40;;;26.40;73.70;;;;;;5026725;28;20041;-75
2023/07/10 09:47:07;;;;;;;41.08;39.10;;;26.90;66.80;;;;;;5047102;28;20061;-76
2023/07/10 09:49:39;;;;;;;23.27;21.85;;;26.70;62.50;;;;;;5039272;28;20100;-74
2023/07/10 09:52:16;;;;;;;32.20;30.38;;;27.10;63.40;;;;;;5045263;28;20087;-75
2023/07/10 09:54:41;;;;;;;27.63;25.75;;;26.90;62.50;;;;;;5047600;28;20110;-75
2023/07/10 09:57:14;;;;;;;28.40;26.63;;;27.10;56.90;;;;;;5048615;28;20049;-75
2023/07/10 09:59:56;;;;;;;34.63;32.72;;;27.10;60.50;;;;;;5028773;28;20029;-75
2023/07/10 10:02:32;;;;;;;37.10;35.30;;;27.10;62.90;;;;;;5028886;28;20028;-74
2023/07/10 10:05:19;;;;;;;21.77;19.98;;;27.10;62.30;;;;;;5047103;28;20041;-75
2023/07/10 10:07:50;;;;;;;27.13;25.38;;;26.90;59.70;;;;;;5042612;28;20061;-75
2023/07/10 10:10:21;;;;;;;21.73;20.17;;;27.30;62.30;;;;;;5045718;28;20104;-75
2023/07/10 10:13:12;;;;;;;23.30;21.52;;;27.50;60.20;;;;;;5027509;28;20033;-75
2023/07/10 10:15:48;;;;;;;31.95;30.35;;;27.80;59.60;;;;;;5040684;28;20040;-75
2023/07/10 10:18:31;;;;;;;47.65;43.88;;;28.20;60.90;;;;;;5044337;28;20103;-74
2023/07/10 10:20:57;;;;;;;26.85;24.92;;;28.10;57.00;;;;;;5047952;28;20021;-75
2023/07/10 10:23:35;;;;;;;21.27;19.92;;;28.70;55.60;;;;;;5046652;28;20091;-75
2023/07/10 10:26:26;;;;;;;26.33;24.73;;;29.50;57.70;;;;;;5051990;28;20029;-75
2023/07/10 10:29:17;;;;;;;30.60;28.92;;;29.90;51.90;;;;;;5049939;28;20041;-75
2023/07/10 10:32:23;;;;;;;21.40;19.95;;;29.60;52.90;;;;;;5051098;28;20048;-75
2023/07/10 10:35:13;;;;;;;29.42;27.80;;;28.50;54.10;;;;;;5038114;28;20051;-75
2023/07/10 10:38:10;;;;;;;25.23;23.70;;;28.60;55.40;;;;;;5052496;28;20025;-78
2023/07/10 10:40:47;;;;;;;26.13;24.33;;;29.00;51.00;;;;;;5051741;28;20024;-77
2023/07/10 10:43:31;;;;;;;24.05;21.95;;;28.20;53.10;;;;;;5052317;28;20064;-76
2023/07/10 10:46:17;;;;;;;37.10;35.10;;;28.30;51.00;;;;;;5052341;28;20558;-77
2023/07/10 10:49:01;;;;;;;28.13;26.38;;;28.40;50.10;;;;;;5022904;28;20041;-77
2023/07/10 10:51:51;;;;;;;43.97;41.88;;;28.20;50.50;;;;;;5053585;28;20024;-77
2023/07/10 10:54:42;;;;;;;24.15;22.83;;;28.40;51.50;;;;;;5049137;28;20032;-77
2023/07/10 10:57:25;;;;;;;35.03;33.13;;;28.30;50.10;;;;;;5049052;28;20083;-77
2023/07/10 11:00:01;;;;;;;29.75;27.88;;;28.00;52.40;;;;;;5050712;28;20017;-77
2023/07/10 11:02:29;;;;;;;22.88;21.58;;;27.90;52.60;;;;;;5050207;28;20442;-76
2023/07/10 11:05:36;;;;;;;23.17;21.83;;;28.00;53.10;;;;;;5051905;28;20036;-77
2023/07/10 11:08:09;;;;;;;20.40;18.98;;;28.00;51.00;;;;;;5051963;28;20033;-78
2023/07/10 11:10:37;;;;;;;27.30;25.83;;;28.00;52.60;;;;;;5035504;28;20120;-78
2023/07/10 11:13:30;;;;;;;50.33;48.17;;;28.00;55.60;;;;;;5052334;28;20035;-78
2023/07/10 11:15:56;;;;;;;27.98;26.23;;;28.10;51.60;;;;;;5053049;28;20176;-78
2023/07/10 11:18:23;;;;;;;36.10;34.20;;;28.00;52.60;;;;;;5051754;28;20041;-75
2023/07/10 11:20:49;;;;;;;109.95;105.85;;;28.00;53.40;;;;;;5060667;28;20478;-75
2023/07/10 11:23:35;;;;;;;35.20;33.30;;;28.20;51.50;;;;;;5053802;28;20043;-76
2023/07/10 11:26:02;;;;;;;60.72;58.22;;;28.40;52.70;;;;;;5053175;28;20029;-76
2023/07/10 11:28:31;;;;;;;109.57;105.40;;;29.30;51.60;;;;;;5056056;28;20029;-75
2023/07/10 11:31:25;;;;;;;106.60;102.43;;;29.40;48.50;;;;;;5068402;28;20070;-76
2023/07/10 11:34:14;;;;;;;127.30;122.15;;;30.60;46.70;;;;;;5076293;28;20390;-75
2023/07/10 11:36:42;;;;;;;431.52;413.38;;;30.70;47.40;;;;;;5075149;28;20158;-75
2023/07/10 11:39:11;;;;;;;454.02;434.58;;;30.00;43.60;;;;;;5056848;28;20035;-75
2023/07/10 11:41:42;;;;;;;273.17;262.13;;;29.50;45.80;;;;;;5073370;28;20726;-75
2023/07/10 11:44:14;;;;;;;267.35;257.40;;;29.20;46.70;;;;;;5075498;28;20032;-75
2023/07/10 11:47:20;;;;;;;335.98;323.27;;;30.10;46.80;;;;;;5078351;28;20020;-75
2023/07/10 11:49:45;;;;;;;689.13;653.13;;;31.00;41.80;;;;;;5075287;28;20044;-75
2023/07/10 11:52:14;;;;;;;740.42;699.40;;;31.60;38.50;;;;;;5083960;28;20031;-75
2023/07/10 11:54:48;;;;;;;270.30;252.02;;;32.10;41.60;;;;;;5077233;28;20024;-75
2023/07/10 11:57:32;;;;;;;1999.90;999.90;;;32.00;36.90;;;;;;5058657;28;20491;-76
2023/07/10 12:00:12;;;;;;;491.15;459.05;;;32.10;38.80;;;;;;5056741;28;20025;-76
2023/07/10 12:02:51;;;;;;;1999.90;999.90;;;32.30;40.90;;;;;;5072425;28;20024;-76
2023/07/10 12:05:17;;;;;;;1999.90;999.90;;;33.00;38.60;;;;;;5077193;28;20071;-76
2023/07/10 12:07:54;;;;;;;1999.90;999.90;;;33.60;35.90;;;;;;5075335;28;20064;-76
2023/07/10 12:10:21;;;;;;;1999.90;999.90;;;33.10;33.60;;;;;;5075295;28;20138;-76
2023/07/10 12:12:47;;;;;;;1999.90;999.90;;;34.10;34.30;;;;;;5076813;28;20039;-76
2023/07/10 12:15:13;;;;;;;1999.90;999.90;;;34.40;32.70;;;;;;5073292;28;20391;-76
2023/07/10 12:17:40;;;;;;;1999.90;999.90;;;34.30;32.50;;;;;;5089691;28;20032;-76
2023/07/10 12:20:33;;;;;;;1999.90;999.90;;;34.90;31.70;;;;;;5088269;28;20035;-76
2023/07/10 12:23:09;;;;;;;1999.90;999.90;;;34.90;30.00;;;;;;5072489;28;20063;-77
2023/07/10 12:25:35;;;;;;;1999.90;999.90;;;34.80;28.70;;;;;;5057957;28;20035;-77
2023/07/10 12:28:03;;;;;;;1999.90;999.90;;;34.00;30.00;;;;;;5053600;28;20032;-77
2023/07/10 12:30:29;;;;;;;1999.90;999.90;;;34.10;31.50;;;;;;5087597;28;20045;-77
2023/07/10 12:32:56;;;;;;;1999.90;999.90;;;33.70;29.40;;;;;;5074952;28;20044;-77
2023/07/10 12:35:29;;;;;;;1999.90;999.90;;;34.10;29.90;;;;;;5050303;28;20517;-77
2023/07/10 12:37:57;;;;;;;1999.90;999.90;;;34.60;29.70;;;;;;5052157;28;20024;-77
2023/07/10 12:40:23;;;;;;;1999.90;999.90;;;34.60;28.50;;;;;;5057470;28;20023;-76